createdAt,value
2022-12-19T00:00:44.431Z,101809.06
2022-12-19T00:03:13.057Z,101793.66
2022-12-19T00:05:43.580Z,101803.13
2022-12-19T00:08:18.138Z,101804.91
2022-12-19T00:10:56.079Z,101796.47
2022-12-19T00:13:25.239Z,101790.75
2022-12-19T00:15:53.933Z,101792.50
2022-12-19T00:18:22.766Z,101784.97
2022-12-19T00:21:00.760Z,101778.31
2022-12-19T00:23:31.800Z,101772.50
2022-12-19T00:26:15.989Z,101767.47
2022-12-19T00:28:46.452Z,101771.03
2022-12-19T00:31:17.308Z,101765.91
2022-12-19T00:33:49.415Z,101770.31
2022-12-19T00:36:22.907Z,101767.06
2022-12-19T00:38:53.263Z,101754.25
2022-12-19T00:41:24.161Z,101756.97
2022-12-19T00:43:55.134Z,101745.03
2022-12-19T00:46:24.219Z,101745.91
2022-12-19T00:48:52.828Z,101746.03
2022-12-19T00:51:25.115Z,101747.78
2022-12-19T00:53:55.634Z,101753.06
2022-12-19T00:56:27.432Z,101752.19
2022-12-19T00:58:56.674Z,101753.19
2022-12-19T01:01:28.514Z,101749.84
2022-12-19T01:04:27.220Z,101751.59
2022-12-19T01:06:49.472Z,101749.97
2022-12-19T01:09:18.047Z,101753.47
2022-12-19T01:12:04.430Z,101758.75
2022-12-19T01:14:32.783Z,101760.53
2022-12-19T01:17:02.514Z,101760.66
2022-12-19T01:19:30.766Z,101752.13
2022-12-19T01:22:00.386Z,101749.69
2022-12-19T01:24:29.687Z,101746.25
2022-12-19T01:26:58.245Z,101747.13
2022-12-19T01:29:28.603Z,101745.50
2022-12-19T01:31:56.844Z,101741.16
2022-12-19T01:34:25.550Z,101739.50
2022-12-19T01:36:54.141Z,101747.25
2022-12-19T01:39:24.867Z,101745.66
2022-12-19T01:41:56.238Z,101736.22
2022-12-19T01:44:25.715Z,101731.13
2022-12-19T01:46:58.159Z,101726.94
2022-12-19T01:49:32.519Z,101721.81
2022-12-19T01:52:03.157Z,101723.44
2022-12-19T01:54:36.927Z,101713.22
2022-12-19T01:57:11.855Z,101716.66
2022-12-19T01:59:45.385Z,101712.47
2022-12-19T02:02:20.671Z,101713.41
2022-12-19T02:04:49.649Z,101715.19
2022-12-19T02:07:21.126Z,101716.94
2022-12-19T02:09:57.827Z,101717.81
2022-12-19T02:12:39.004Z,101710.16
2022-12-19T02:15:11.994Z,101703.31
2022-12-19T02:17:57.636Z,101711.91
2022-12-19T02:21:21.304Z,101706.78
2022-12-19T02:24:37.749Z,101708.56
2022-12-19T02:27:46.702Z,101701.72
2022-12-19T02:30:17.299Z,101696.63
2022-12-19T02:33:01.846Z,101688.09
2022-12-19T02:35:35.035Z,101690.59
2022-12-19T02:38:15.900Z,101698.25
2022-12-19T02:40:51.905Z,101701.75
2022-12-19T02:43:28.154Z,101689.84
2022-12-19T02:45:58.777Z,101686.47
2022-12-19T02:48:29.542Z,101686.59
2022-12-19T02:50:59.619Z,101690.09
2022-12-19T02:53:27.882Z,101690.25
2022-12-19T02:56:23.063Z,101697.09
2022-12-19T02:59:08.134Z,101687.59
2022-12-19T03:01:48.688Z,101694.50
2022-12-19T03:04:36.854Z,101686.84
2022-12-19T03:07:19.138Z,101686.22
2022-12-19T03:09:57.946Z,101694.13
2022-12-19T03:12:33.909Z,101689.91
2022-12-19T03:15:03.748Z,101692.63
2022-12-19T03:17:37.602Z,101689.38
2022-12-19T03:20:17.437Z,101690.25
2022-12-19T03:22:46.058Z,101685.97
2022-12-19T03:25:14.784Z,101683.41
2022-12-19T03:27:44.480Z,101673.94
2022-12-19T03:30:14.984Z,101680.69
2022-12-19T03:32:47.605Z,101675.56
2022-12-19T03:35:21.617Z,101670.41
2022-12-19T03:37:53.672Z,101681.53
2022-12-19T03:40:26.121Z,101679.75
2022-12-19T03:43:11.385Z,101679.84
2022-12-19T03:45:49.614Z,101678.00
2022-12-19T03:48:23.466Z,101679.63
2022-12-19T03:51:04.618Z,101673.56
2022-12-19T03:53:58.255Z,101666.63
2022-12-19T03:56:37.004Z,101680.44
2022-12-19T03:59:10.963Z,101676.25
2022-12-19T04:01:41.175Z,101671.97
2022-12-19T04:04:11.044Z,101678.09
2022-12-19T04:06:44.018Z,101672.03
2022-12-19T04:09:16.733Z,101684.03
2022-12-19T04:11:54.251Z,101677.13
2022-12-19T04:14:29.800Z,101673.81
2022-12-19T04:17:08.253Z,101683.34
2022-12-19T04:19:43.771Z,101672.31
2022-12-19T04:22:19.335Z,101671.53
2022-12-19T04:24:49.973Z,101671.66
2022-12-19T04:27:19.937Z,101669.97
2022-12-19T04:29:49.445Z,101671.78
2022-12-19T04:32:17.936Z,101659.00
2022-12-19T04:34:46.467Z,101659.00
2022-12-19T04:37:16.199Z,101663.31
2022-12-19T04:39:47.172Z,101653.00
2022-12-19T04:42:15.731Z,101647.97
2022-12-19T04:44:44.324Z,101648.06
2022-12-19T04:47:12.984Z,101645.50
2022-12-19T04:49:41.468Z,101633.50
2022-12-19T04:52:09.783Z,101618.91
2022-12-19T04:54:39.383Z,101613.78
2022-12-19T04:57:08.077Z,101613.84
2022-12-19T04:59:36.573Z,101615.53
2022-12-19T05:02:07.908Z,101615.59
2022-12-19T05:04:36.286Z,101615.66
2022-12-19T05:07:04.837Z,101621.69
2022-12-19T05:09:34.200Z,101622.69
2022-12-19T05:12:03.787Z,101620.25
2022-12-19T05:14:32.025Z,101624.66
2022-12-19T05:17:01.566Z,101617.06
2022-12-19T05:19:30.447Z,101612.03
2022-12-19T05:21:59.424Z,101607.75
2022-12-19T05:24:28.364Z,101610.47
2022-12-19T05:26:56.881Z,101615.72
2022-12-19T05:29:26.545Z,101618.41
2022-12-19T05:31:55.104Z,101610.81
2022-12-19T05:34:24.630Z,101611.78
2022-12-19T05:36:53.163Z,101600.72
2022-12-19T05:39:21.718Z,101597.31
2022-12-19T05:41:50.266Z,101596.56
2022-12-19T05:44:18.832Z,101611.25
2022-12-19T05:46:48.544Z,101621.69
2022-12-19T05:49:16.958Z,101616.56
2022-12-19T05:51:48.335Z,101620.97
2022-12-19T05:54:16.973Z,101604.66
2022-12-19T05:56:45.842Z,101615.06
2022-12-19T05:59:14.506Z,101623.75
2022-12-19T06:01:43.113Z,101617.84
2022-12-19T06:04:12.818Z,101614.56
2022-12-19T06:06:41.715Z,101604.34
2022-12-19T06:09:10.320Z,101607.88
2022-12-19T06:11:38.862Z,101608.84
2022-12-19T06:14:07.841Z,101599.50
2022-12-19T06:16:36.416Z,101600.44
2022-12-19T06:19:05.071Z,101607.44
2022-12-19T06:21:34.741Z,101615.25
2022-12-19T06:24:03.335Z,101605.81
2022-12-19T06:26:31.963Z,101610.22
2022-12-19T06:29:00.590Z,101611.97
2022-12-19T06:31:29.300Z,101610.34
2022-12-19T06:33:58.035Z,101637.06
2022-12-19T06:36:28.988Z,101628.50
2022-12-19T06:38:59.895Z,101632.00
2022-12-19T06:41:46.604Z,101633.75
2022-12-19T06:44:18.087Z,101624.31
2022-12-19T06:46:46.809Z,101626.97
2022-12-19T06:49:15.769Z,101609.81
2022-12-19T06:51:44.617Z,101613.34
2022-12-19T06:54:15.882Z,101609.13
2022-12-19T06:56:45.286Z,101603.13
2022-12-19T06:59:16.199Z,101610.94
2022-12-19T07:02:06.728Z,101603.22
2022-12-19T07:04:41.544Z,101606.75
2022-12-19T07:07:10.279Z,101605.91
2022-12-19T07:09:40.052Z,101605.13
2022-12-19T07:12:09.391Z,101600.06
2022-12-19T07:14:38.166Z,101603.53
2022-12-19T07:17:07.259Z,101605.31
2022-12-19T07:19:37.098Z,101605.44
2022-12-19T07:22:06.488Z,101610.69
2022-12-19T07:24:36.949Z,101602.94
2022-12-19T07:27:09.768Z,101598.69
2022-12-19T07:29:38.090Z,101586.75
2022-12-19T07:32:06.823Z,101585.09
2022-12-19T07:34:35.397Z,101583.50
2022-12-19T07:37:03.594Z,101580.91
2022-12-19T07:39:32.205Z,101588.69
2022-12-19T07:42:00.780Z,101596.50
2022-12-19T07:44:38.577Z,101598.19
2022-12-19T07:47:09.939Z,101601.75
2022-12-19T07:49:38.274Z,101593.94
2022-12-19T07:52:08.347Z,101611.28
2022-12-19T07:54:37.042Z,101604.50
2022-12-19T07:57:05.800Z,101624.28
2022-12-19T07:59:38.826Z,101602.81
2022-12-19T08:02:09.140Z,101605.50
2022-12-19T08:04:37.584Z,101601.28
2022-12-19T08:07:06.175Z,101605.66
2022-12-19T08:09:34.764Z,101594.56
2022-12-19T08:12:04.256Z,101610.16
2022-12-19T08:14:32.635Z,101618.81
2022-12-19T08:19:51.530Z,101612.09
2022-12-19T08:22:20.155Z,101609.56
2022-12-19T08:24:48.615Z,101600.22
2022-12-19T08:27:18.009Z,101598.53
2022-12-19T08:29:47.549Z,101597.00
2022-12-19T08:32:21.166Z,101593.63
2022-12-19T08:34:52.042Z,101599.72
2022-12-19T08:37:20.597Z,101595.47
2022-12-19T08:39:48.800Z,101597.25
2022-12-19T08:42:17.526Z,101588.72
2022-12-19T08:44:45.844Z,101587.88
2022-12-19T08:47:14.631Z,101576.78
2022-12-19T08:49:43.180Z,101567.34
2022-12-19T08:52:12.937Z,101569.13
2022-12-19T08:54:41.553Z,101564.81
2022-12-19T08:57:10.811Z,101573.53
2022-12-19T08:59:39.417Z,101581.28
2022-12-19T09:02:10.570Z,101583.06
2022-12-19T09:06:05.128Z,101590.84
2022-12-19T09:07:29.174Z,101590.00
2022-12-19T09:09:57.360Z,101576.22
2022-12-19T09:12:25.858Z,101571.03
2022-12-19T09:14:54.413Z,101576.22
2022-12-19T09:17:22.935Z,101571.91
2022-12-19T09:19:51.772Z,101568.53
2022-12-19T09:22:21.035Z,101567.75
2022-12-19T09:24:57.144Z,101566.94
2022-12-19T09:27:25.536Z,101568.72
2022-12-19T09:29:54.125Z,101579.13
2022-12-19T09:32:22.614Z,101573.19
2022-12-19T09:34:51.173Z,101575.84
2022-12-19T09:37:19.957Z,101573.38
2022-12-19T09:39:49.349Z,101583.91
2022-12-19T09:42:47.838Z,101579.66
2022-12-19T09:45:33.632Z,101572.00
2022-12-19T09:48:03.069Z,101560.00
2022-12-19T09:50:52.966Z,101560.91
2022-12-19T09:53:29.068Z,101573.09
2022-12-19T09:56:00.991Z,101567.97
2022-12-19T09:58:42.256Z,101572.41
2022-12-19T10:01:22.385Z,101556.16
2022-12-19T10:04:02.253Z,101546.84
2022-12-19T10:07:20.439Z,101553.88
2022-12-19T10:10:57.290Z,101558.34
2022-12-19T10:12:44.384Z,101561.88
2022-12-19T10:15:26.912Z,101557.56
2022-12-19T10:18:26.437Z,101536.03
2022-12-19T10:21:05.968Z,101548.16
2022-12-19T10:24:21.201Z,101534.44
2022-12-19T10:26:53.624Z,101534.56
2022-12-19T10:29:49.672Z,101536.34
2022-12-19T10:32:31.352Z,101532.97
2022-12-19T10:34:59.924Z,101540.81
2022-12-19T10:37:40.971Z,101529.63
2022-12-19T10:40:27.943Z,101542.63
2022-12-19T10:43:01.380Z,101534.06
2022-12-19T10:45:44.139Z,101522.00
2022-12-19T10:48:27.730Z,101513.38
2022-12-19T10:51:00.669Z,101511.66
2022-12-19T10:53:35.379Z,101505.59
2022-12-19T10:56:13.777Z,101502.97
2022-12-19T10:58:45.747Z,101514.19
2022-12-19T11:01:16.930Z,101529.69
2022-12-19T11:03:52.521Z,101522.88
2022-12-19T11:06:51.115Z,101516.84
2022-12-19T11:09:29.943Z,101513.44
2022-12-19T11:15:49.692Z,101503.13
2022-12-19T11:20:21.566Z,101501.44
2022-12-19T11:26:10.230Z,101487.69
2022-12-19T11:29:30.549Z,101475.66
2022-12-19T11:29:39.997Z,101480.84
2022-12-19T11:30:06.585Z,101485.13
2022-12-19T11:32:43.075Z,101488.66
2022-12-19T11:35:24.491Z,101481.78
2022-12-19T11:37:58.019Z,101484.38
2022-12-19T11:40:37.987Z,101481.78
2022-12-19T11:46:19.447Z,101478.38
2022-12-19T11:48:54.710Z,101473.19
2022-12-19T11:51:29.122Z,101477.53
2022-12-19T11:54:05.911Z,101460.28
2022-12-19T11:56:34.704Z,101461.94
2022-12-19T11:59:13.328Z,101455.97
2022-12-19T12:01:53.465Z,101458.63
2022-12-19T12:05:23.707Z,101461.22
2022-12-19T12:08:57.660Z,101450.94
2022-12-19T12:20:11.238Z,101431.13
2022-12-19T12:23:05.699Z,101431.22
2022-12-19T12:23:23.455Z,101440.72
2022-12-19T12:31:21.921Z,101432.97
2022-12-19T12:31:41.204Z,101433.91
2022-12-19T12:31:43.273Z,101418.44
2022-12-19T12:31:46.928Z,101422.84
2022-12-19T12:35:46.388Z,101429.84
2022-12-19T12:38:45.850Z,101424.72
2022-12-19T12:41:45.378Z,101423.94
2022-12-19T12:44:14.798Z,101438.69
2022-12-19T12:46:49.512Z,101427.53
2022-12-19T12:49:36.952Z,101431.91
2022-12-19T12:52:09.016Z,101422.47
2022-12-19T12:54:43.172Z,101425.97
2022-12-19T12:57:22.131Z,101422.59
2022-12-19T13:00:27.965Z,101412.25
2022-12-19T13:03:04.978Z,101407.13
2022-12-19T13:05:53.769Z,101409.72
2022-12-19T13:08:36.229Z,101405.34
2022-12-19T13:11:07.496Z,101408.81
2022-12-19T13:13:55.116Z,101413.09
2022-12-19T13:16:54.516Z,101407.00
2022-12-19T13:19:28.687Z,101394.91
2022-12-19T13:22:18.133Z,101403.50
2022-12-19T13:24:51.043Z,101398.19
2022-12-19T13:27:50.431Z,101397.31
2022-12-19T13:30:21.383Z,101403.38
2022-12-19T13:33:11.091Z,101406.81
2022-12-19T13:36:06.357Z,101400.78
2022-12-19T13:39:52.265Z,101403.38
2022-12-19T13:41:47.215Z,101401.63
2022-12-19T13:44:19.467Z,101404.19
2022-12-19T13:46:48.997Z,101406.75
2022-12-19T13:49:27.528Z,101404.09
2022-12-19T13:52:00.072Z,101401.44
2022-12-19T13:54:32.824Z,101405.69
2022-12-19T13:57:09.066Z,101406.47
2022-12-19T13:59:40.754Z,101402.97
2022-12-19T14:02:45.278Z,101402.91
2022-12-19T14:05:34.125Z,101400.25
2022-12-19T14:08:21.685Z,101395.88
2022-12-19T14:11:33.672Z,101400.97
2022-12-19T14:14:12.720Z,101399.13
2022-12-19T14:16:46.278Z,101395.59
2022-12-19T14:19:23.726Z,101390.28
2022-12-19T14:22:05.491Z,101391.94
2022-12-19T14:24:41.520Z,101397.06
2022-12-19T14:28:24.225Z,101386.66
2022-12-19T14:30:30.271Z,101390.03
2022-12-19T14:33:39.694Z,101394.31
2022-12-19T14:36:11.293Z,101395.06
2022-12-19T14:39:21.976Z,101395.00
2022-12-19T14:42:02.469Z,101402.69
2022-12-19T14:54:02.598Z,101389.53
2022-12-19T14:54:16.319Z,101394.78
2022-12-19T14:54:22.085Z,101381.69
2022-12-19T14:54:37.844Z,101385.91
2022-12-19T14:59:05.336Z,101393.47
2022-12-19T15:01:36.705Z,101389.09
2022-12-19T15:04:48.112Z,101385.50
2022-12-19T15:07:12.136Z,101388.03
2022-12-19T15:11:06.383Z,101383.63
2022-12-19T15:14:52.403Z,101395.53
2022-12-19T15:16:07.320Z,101398.03
2022-12-19T15:18:41.296Z,101395.38
2022-12-19T15:21:13.981Z,101389.25
2022-12-19T15:23:44.669Z,101392.63
2022-12-19T15:26:16.773Z,101389.09
2022-12-19T15:28:50.634Z,101387.31
2022-12-19T15:31:29.856Z,101389.81
2022-12-19T15:36:47.616Z,101377.59
2022-12-19T15:39:16.158Z,101365.50
2022-12-19T15:41:46.566Z,101356.84
2022-12-19T15:44:23.145Z,101356.75
2022-12-19T15:46:51.659Z,101360.16
2022-12-19T15:49:21.502Z,101355.00
2022-12-19T15:51:51.059Z,101356.69
2022-12-19T15:54:47.849Z,101357.47
2022-12-19T15:57:17.570Z,101359.13
2022-12-19T15:59:47.545Z,101349.59
2022-12-19T16:02:22.959Z,101354.75
2022-12-19T16:04:56.921Z,101354.75
2022-12-19T16:07:30.852Z,101359.91
2022-12-19T16:09:59.349Z,101354.66
2022-12-19T16:12:33.713Z,101358.09
2022-12-19T16:15:04.934Z,101352.06
2022-12-19T16:17:34.245Z,101348.63
2022-12-19T16:20:02.511Z,101344.31
2022-12-19T16:22:31.623Z,101352.06
2022-12-19T16:25:00.352Z,101349.44
2022-12-19T16:27:31.611Z,101347.72
2022-12-19T16:30:11.104Z,101347.69
2022-12-19T16:32:42.830Z,101338.22
2022-12-19T16:35:23.926Z,101329.56
2022-12-19T16:38:03.033Z,101320.94
2022-12-19T16:40:31.599Z,101314.06
2022-12-19T16:43:06.037Z,101309.75
2022-12-19T16:45:35.840Z,101315.75
2022-12-19T16:48:04.109Z,101325.22
2022-12-19T16:50:33.286Z,101330.38
2022-12-19T16:53:01.826Z,101324.38
2022-12-19T16:55:30.442Z,101319.22
2022-12-19T16:57:58.978Z,101311.47
2022-12-19T17:00:27.695Z,101307.16
2022-12-19T17:03:04.504Z,101307.16
2022-12-19T17:05:35.213Z,101314.97
2022-12-19T17:08:03.910Z,101311.50
2022-12-19T17:10:34.191Z,101313.28
2022-12-19T17:13:04.487Z,101329.66
2022-12-19T17:15:36.765Z,101320.22
2022-12-19T17:18:13.451Z,101321.97
2022-12-19T17:20:45.184Z,101329.69
2022-12-19T17:23:16.905Z,101322.81
2022-12-19T17:25:45.909Z,101331.44
2022-12-19T17:28:14.987Z,101326.25
2022-12-19T17:30:49.210Z,101327.13
2022-12-19T17:33:22.152Z,101329.69
2022-12-19T17:35:51.001Z,101326.25
2022-12-19T17:38:19.913Z,101315.06
2022-12-19T17:40:48.548Z,101327.97
2022-12-19T17:43:17.942Z,101330.56
2022-12-19T17:45:46.922Z,101336.59
2022-12-19T17:48:27.395Z,101340.03
2022-12-19T17:50:56.453Z,101340.03
2022-12-19T17:53:25.258Z,101339.19
2022-12-19T17:55:53.897Z,101342.59
2022-12-19T17:58:22.596Z,101345.22
2022-12-19T18:00:52.408Z,101334.88
2022-12-19T18:03:24.680Z,101323.69
2022-12-19T18:05:55.624Z,101313.38
2022-12-19T18:08:28.374Z,101310.78
2022-12-19T18:11:01.269Z,101313.38
2022-12-19T18:13:32.545Z,101317.72
2022-12-19T18:16:03.170Z,101327.19
2022-12-19T18:18:36.280Z,101328.84
2022-12-19T18:21:05.378Z,101327.13
2022-12-19T18:23:33.959Z,101324.53
2022-12-19T18:26:03.126Z,101329.66
2022-12-19T18:28:31.714Z,101313.28
2022-12-19T18:31:04.653Z,101327.03
2022-12-19T18:33:40.261Z,101326.97
2022-12-19T18:36:16.624Z,101307.16
2022-12-19T18:38:45.229Z,101296.91
2022-12-19T18:41:14.016Z,101285.66
2022-12-19T18:43:42.866Z,101269.25
2022-12-19T18:46:14.808Z,101278.63
2022-12-19T18:48:46.292Z,101296.72
2022-12-19T18:51:18.342Z,101288.94
2022-12-19T18:53:48.387Z,101294.94
2022-12-19T18:56:19.988Z,101294.03
2022-12-19T18:58:48.530Z,101300.06
2022-12-19T19:01:20.669Z,101303.47
2022-12-19T19:03:55.384Z,101305.13
2022-12-19T19:06:26.702Z,101307.72
2022-12-19T19:08:56.859Z,101303.41
2022-12-19T19:11:42.347Z,101291.31
2022-12-19T19:14:11.320Z,101292.16
2022-12-19T19:16:40.899Z,101286.13
2022-12-19T19:19:13.043Z,101292.13
2022-12-19T19:21:42.571Z,101293.81
2022-12-19T19:24:14.727Z,101291.22
2022-12-19T19:26:43.311Z,101293.81
2022-12-19T19:29:13.526Z,101290.41
2022-12-19T19:31:47.142Z,101294.72
2022-12-19T19:34:22.751Z,101288.72
2022-12-19T19:36:55.964Z,101287.91
2022-12-19T19:39:27.615Z,101282.69
2022-12-19T19:41:57.041Z,101286.16
2022-12-19T19:44:25.556Z,101294.72
2022-12-19T19:46:54.246Z,101293.88
2022-12-19T19:49:27.295Z,101288.72
2022-12-19T19:52:02.236Z,101296.47
2022-12-19T19:54:32.055Z,101302.56
2022-12-19T19:57:00.696Z,101309.44
2022-12-19T19:59:31.658Z,101314.63
2022-12-19T20:02:02.486Z,101316.38
2022-12-19T20:04:32.899Z,101330.09
2022-12-19T20:07:01.847Z,101325.84
2022-12-19T20:09:30.677Z,101323.28
2022-12-19T20:12:00.367Z,101317.28
2022-12-19T20:14:29.342Z,101318.13
2022-12-19T20:16:57.860Z,101325.91
2022-12-19T20:19:26.546Z,101327.66
2022-12-19T20:21:56.736Z,101319.94
2022-12-19T20:24:25.268Z,101326.88
2022-12-19T20:26:53.629Z,101310.53
2022-12-19T20:29:24.741Z,101318.38
2022-12-19T20:31:53.385Z,101320.94
2022-12-19T20:34:22.095Z,101326.94
2022-12-19T20:36:51.061Z,101320.13
2022-12-19T20:39:22.250Z,101321.81
2022-12-19T20:41:51.668Z,101322.72
2022-12-19T20:44:24.519Z,101322.72
2022-12-19T20:46:53.841Z,101321.00
2022-12-19T20:49:24.066Z,101320.13
2022-12-19T20:51:52.808Z,101318.38
2022-12-19T20:54:23.606Z,101319.22
2022-12-19T20:56:52.240Z,101311.38
2022-12-19T20:59:21.137Z,101324.22
2022-12-19T21:01:49.788Z,101325.03
2022-12-19T21:04:18.925Z,101323.28
2022-12-19T21:06:47.585Z,101318.91
2022-12-19T21:09:17.741Z,101314.59
2022-12-19T21:11:47.518Z,101314.53
2022-12-19T21:14:16.121Z,101316.22
2022-12-19T21:16:45.027Z,101317.88
2022-12-19T21:19:13.610Z,101322.16
2022-12-19T21:21:42.155Z,101335.00
2022-12-19T21:24:10.737Z,101326.47
2022-12-19T21:26:39.270Z,101324.69
2022-12-19T21:29:08.843Z,101322.16
2022-12-19T21:31:37.189Z,101321.31
2022-12-19T21:34:05.529Z,101305.91
2022-12-19T21:36:33.787Z,101305.91
2022-12-19T21:39:02.904Z,101304.28
2022-12-19T21:41:32.358Z,101304.38
2022-12-19T21:44:01.382Z,101299.28
2022-12-19T21:46:33.918Z,101295.06
2022-12-19T21:49:03.537Z,101296.91
2022-12-19T21:51:33.369Z,101296.06
2022-12-19T21:54:03.695Z,101298.63
2022-12-19T21:56:35.291Z,101301.22
2022-12-19T21:59:07.186Z,101308.13
2022-12-19T22:01:37.338Z,101309.88
2022-12-19T22:04:09.147Z,101306.47
2022-12-19T22:06:38.888Z,101308.19
2022-12-19T22:09:15.294Z,101303.97
2022-12-19T22:11:44.729Z,101308.28
2022-12-19T22:14:15.198Z,101322.13
2022-12-19T22:16:45.074Z,101323.84
2022-12-19T22:19:17.716Z,101319.56
2022-12-19T22:21:47.024Z,101329.00
2022-12-19T22:24:20.191Z,101334.09
2022-12-19T22:26:48.913Z,101327.19
2022-12-19T22:29:18.329Z,101328.84
2022-12-19T22:31:49.562Z,101323.69
2022-12-19T22:34:20.808Z,101319.41
2022-12-19T22:36:50.627Z,101306.53
2022-12-19T22:39:22.349Z,101297.13
2022-12-19T22:41:51.080Z,101286.84
2022-12-19T22:44:22.150Z,101286.91
2022-12-19T22:46:52.541Z,101291.28
2022-12-19T22:49:20.991Z,101287.84
2022-12-19T22:51:49.937Z,101297.41
2022-12-19T22:54:18.540Z,101294.88
2022-12-19T22:56:47.064Z,101296.66
2022-12-19T22:59:15.586Z,101282.06
2022-12-19T23:01:45.344Z,101279.53
2022-12-19T23:04:17.431Z,101277.88
2022-12-19T23:06:46.259Z,101279.69
2022-12-19T23:09:17.625Z,101283.97
2022-12-19T23:11:48.882Z,101285.72
2022-12-19T23:14:19.746Z,101285.72
2022-12-19T23:16:48.683Z,101291.75
2022-12-19T23:19:18.420Z,101286.56
2022-12-19T23:21:47.148Z,101279.75
2022-12-19T23:24:15.876Z,101272.03
2022-12-19T23:26:45.308Z,101278.97
2022-12-19T23:29:16.150Z,101278.16
2022-12-19T23:31:47.701Z,101275.59
2022-12-19T23:34:18.002Z,101271.38
2022-12-19T23:39:36.774Z,101269.72
2022-12-19T23:42:05.570Z,101273.22
2022-12-19T23:44:34.407Z,101269.78
2022-12-19T23:47:04.123Z,101270.66
2022-12-19T23:49:34.653Z,101268.13
2022-12-19T23:52:03.429Z,101267.25
2022-12-19T23:54:32.235Z,101263.03
2022-12-19T23:57:00.783Z,101253.56
2022-12-19T23:59:29.199Z,101253.56
